Time,TemperatureF,DewpointF,PressureIn,WindDirection,WindDirectionDegrees,WindSpeedMPH,WindSpeedGustMPH,Humidity,HourlyPrecipIn,Conditions,Clouds,dailyrainin,SolarRadiationWatts/m^2,SoftwareType,DateUTC
2013-01-26 00:03:00,29.6,20.0,30.28,SW,218,0.0,0.0,68,0.00,,,0.00,0,weatherlink.com 1.10,2013-01-26 06:03:00,
2013-01-26 00:18:00,29.3,20.0,30.29,SW,218,0.0,1.0,69,0.00,,,0.00,0,weatherlink.com 1.10,2013-01-26 06:18:00,
2013-01-26 00:33:00,29.2,20.0,30.29,SW,218,0.0,0.0,69,0.00,,,0.00,0,weatherlink.com 1.10,2013-01-26 06:33:00,
2013-01-26 00:48:00,29.0,20.0,30.28,SW,218,0.0,1.0,70,0.00,,,0.00,0,weatherlink.com 1.10,2013-01-26 06:48:00,
2013-01-26 01:03:00,28.7,20.0,30.27,SW,218,0.0,0.0,71,0.00,,,0.00,0,weatherlink.com 1.10,2013-01-26 07:03:00,
2013-01-26 01:18:00,28.6,20.0,30.27,SW,218,0.0,0.0,71,0.00,,,0.00,0,weatherlink.com 1.10,2013-01-26 07:18:00,
2013-01-26 01:33:00,28.6,21.0,30.27,SW,218,0.0,0.0,72,0.00,,,0.00,0,weatherlink.com 1.10,2013-01-26 07:33:00,
2013-01-26 01:48:00,28.7,21.0,30.27,SW,218,1.0,1.0,72,0.00,,,0.00,0,weatherlink.com 1.10,2013-01-26 07:48:00,
2013-01-26 02:03:00,28.9,21.0,30.27,SW,218,0.0,0.0,73,0.00,,,0.00,0,weatherlink.com 1.10,2013-01-26 08:03:00,
2013-01-26 02:18:00,28.8,21.0,30.28,SW,218,0.0,0.0,73,0.00,,,0.00,0,weatherlink.com 1.10,2013-01-26 08:18:00,
2013-01-26 02:34:00,28.7,21.0,30.27,SW,218,0.0,0.0,73,0.00,,,0.00,0,weatherlink.com 1.10,2013-01-26 08:34:00,
2013-01-26 02:49:00,28.7,21.0,30.28,SW,218,0.0,1.0,73,0.00,,,0.00,0,weatherlink.com 1.10,2013-01-26 08:49:00,
2013-01-26 03:04:00,28.7,21.0,30.28,SW,218,0.0,0.0,74,0.00,,,0.00,0,weatherlink.com 1.10,2013-01-26 09:04:00,
2013-01-26 03:19:00,28.6,22.0,30.28,SW,218,0.0,1.0,75,0.00,,,0.00,0,weatherlink.com 1.10,2013-01-26 09:19:00,
2013-01-26 03:34:00,28.5,22.0,30.27,SW,218,0.0,2.0,75,0.00,,,0.00,0,weatherlink.com 1.10,2013-01-26 09:34:00,
2013-01-26 03:49:00,28.5,22.0,30.28,SW,218,0.0,0.0,76,0.00,,,0.00,0,weatherlink.com 1.10,2013-01-26 09:49:00,
2013-01-26 04:04:00,28.7,22.0,30.28,SW,218,0.0,2.0,77,0.00,,,0.00,0,weatherlink.com 1.10,2013-01-26 10:04:00,
2013-01-26 04:19:00,28.8,22.0,30.27,SW,218,0.0,1.0,76,0.00,,,0.00,0,weatherlink.com 1.10,2013-01-26 10:19:00,
2013-01-26 04:34:00,28.9,22.0,30.27,SW,218,0.0,0.0,76,0.00,,,0.00,0,weatherlink.com 1.10,2013-01-26 10:34:00,
2013-01-26 04:49:00,29.0,22.0,30.27,SW,218,0.0,0.0,75,0.00,,,0.00,0,weatherlink.com 1.10,2013-01-26 10:49:00,
2013-01-26 05:04:00,29.2,22.0,30.27,SW,218,0.0,1.0,75,0.00,,,0.00,0,weatherlink.com 1.10,2013-01-26 11:04:00,
2013-01-26 05:19:00,29.2,22.0,30.28,SW,218,0.0,0.0,74,0.00,,,0.00,0,weatherlink.com 1.10,2013-01-26 11:19:00,
2013-01-26 05:34:00,29.2,22.0,30.28,SW,218,0.0,1.0,75,0.00,,,0.00,0,weatherlink.com 1.10,2013-01-26 11:34:00,
2013-01-26 05:49:00,29.7,23.0,30.28,SW,218,0.0,1.0,75,0.00,,,0.00,0,weatherlink.com 1.10,2013-01-26 11:49:00,
2013-01-26 06:04:00,30.1,23.0,30.28,SW,218,0.0,1.0,75,0.00,,,0.00,0,weatherlink.com 1.10,2013-01-26 12:04:00,
2013-01-26 06:19:00,30.7,24.0,30.29,SW,217,1.0,3.0,75,0.00,,,0.00,0,weatherlink.com 1.10,2013-01-26 12:19:00,
2013-01-26 06:34:00,31.5,24.0,30.29,SW,216,2.0,4.0,73,0.00,,,0.00,0,weatherlink.com 1.10,2013-01-26 12:34:00,
2013-01-26 06:49:00,32.6,24.0,30.29,SSW,198,3.0,4.0,71,0.00,,,0.00,0,weatherlink.com 1.10,2013-01-26 12:49:00,
2013-01-26 07:04:00,33.3,24.0,30.30,SSW,198,3.0,4.0,69,0.00,,,0.00,0,weatherlink.com 1.10,2013-01-26 13:04:00,
2013-01-26 07:19:00,34.0,24.0,30.30,South,178,4.0,5.0,67,0.00,,,0.00,0,weatherlink.com 1.10,2013-01-26 13:19:00,
2013-01-26 07:34:00,34.4,24.0,30.30,South,175,4.0,4.0,66,0.00,,,0.00,0,weatherlink.com 1.10,2013-01-26 13:34:00,
2013-01-26 07:49:00,34.7,24.0,30.30,SSE,167,3.0,5.0,65,0.00,,,0.00,11,weatherlink.com 1.10,2013-01-26 13:49:00,
2013-01-26 08:04:00,35.1,24.0,30.29,SE,146,3.0,6.0,65,0.00,,,0.00,28,weatherlink.com 1.10,2013-01-26 14:04:00,
2013-01-26 08:19:00,35.5,25.0,30.30,SE,136,0.0,6.0,65,0.00,,,0.00,54,weatherlink.com 1.10,2013-01-26 14:19:00,
2013-01-26 08:34:00,35.9,25.0,30.30,SE,127,5.0,7.0,64,0.00,,,0.00,63,weatherlink.com 1.10,2013-01-26 14:34:00,
2013-01-26 08:49:00,36.4,25.0,30.30,SE,127,2.0,5.0,63,0.00,,,0.00,93,weatherlink.com 1.10,2013-01-26 14:49:00,
2013-01-26 09:04:00,37.1,25.0,30.30,SE,125,2.0,8.0,62,0.00,,,0.00,113,weatherlink.com 1.10,2013-01-26 15:04:00,
2013-01-26 09:19:00,37.9,25.0,30.30,ESE,118,2.0,7.0,61,0.00,,,0.00,123,weatherlink.com 1.10,2013-01-26 15:19:00,
2013-01-26 09:34:00,38.4,25.0,30.30,ESE,117,3.0,7.0,60,0.00,,,0.00,123,weatherlink.com 1.10,2013-01-26 15:34:00,
2013-01-26 09:49:00,39.5,26.0,30.30,ESE,113,2.0,8.0,59,0.00,,,0.00,301,weatherlink.com 1.10,2013-01-26 15:49:00,
2013-01-26 10:04:00,41.5,26.0,30.30,ESE,109,3.0,9.0,55,0.00,,,0.00,327,weatherlink.com 1.10,2013-01-26 16:04:00,
2013-01-26 10:19:00,42.9,26.0,30.30,ESE,105,3.0,9.0,52,0.00,,,0.00,357,weatherlink.com 1.10,2013-01-26 16:19:00,
2013-01-26 10:34:00,44.8,27.0,30.30,ESE,105,3.0,7.0,50,0.00,,,0.00,387,weatherlink.com 1.10,2013-01-26 16:34:00,
2013-01-26 10:49:00,46.9,27.0,30.30,East,101,5.0,7.0,47,0.00,,,0.00,415,weatherlink.com 1.10,2013-01-26 16:49:00,
2013-01-26 11:04:00,48.5,27.0,30.30,ESE,107,5.0,8.0,43,0.00,,,0.00,446,weatherlink.com 1.10,2013-01-26 17:04:00,
2013-01-26 11:20:00,49.6,27.0,30.30,East,94,5.0,9.0,41,0.00,,,0.00,269,weatherlink.com 1.10,2013-01-26 17:20:00,
2013-01-26 11:35:00,50.4,27.0,30.29,East,89,1.0,8.0,41,0.00,,,0.00,540,weatherlink.com 1.10,2013-01-26 17:35:00,
2013-01-26 11:50:00,50.5,27.0,30.28,SE,127,3.0,11.0,40,0.00,,,0.00,522,weatherlink.com 1.10,2013-01-26 17:50:00,
2013-01-26 12:05:00,50.8,27.0,30.27,SSE,147,2.0,10.0,40,0.00,,,0.00,329,weatherlink.com 1.10,2013-01-26 18:05:00,
2013-01-26 12:20:00,52.0,28.0,30.26,SSE,154,2.0,10.0,39,0.00,,,0.00,548,weatherlink.com 1.10,2013-01-26 18:20:00,
2013-01-26 12:35:00,53.0,27.0,30.25,ESE,107,2.0,10.0,37,0.00,,,0.00,536,weatherlink.com 1.10,2013-01-26 18:35:00,
2013-01-26 12:50:00,53.3,27.0,30.23,SSE,161,3.0,11.0,36,0.00,,,0.00,522,weatherlink.com 1.10,2013-01-26 18:50:00,
2013-01-26 13:05:00,53.8,27.0,30.22,East,100,9.0,11.0,36,0.00,,,0.00,522,weatherlink.com 1.10,2013-01-26 19:05:00,
2013-01-26 13:20:00,54.1,27.0,30.21,SE,143,4.0,10.0,35,0.00,,,0.00,513,weatherlink.com 1.10,2013-01-26 19:20:00,
2013-01-26 13:35:00,54.0,26.0,30.20,East,97,5.0,11.0,34,0.00,,,0.00,492,weatherlink.com 1.10,2013-01-26 19:35:00,
2013-01-26 13:50:00,55.1,27.0,30.19,SE,142,2.0,10.0,34,0.00,,,0.00,533,weatherlink.com 1.10,2013-01-26 19:50:00,
2013-01-26 14:05:00,54.4,26.0,30.18,East,99,6.0,12.0,34,0.00,,,0.00,223,weatherlink.com 1.10,2013-01-26 20:05:00,
2013-01-26 14:20:00,55.1,26.0,30.18,ESE,110,4.0,8.0,33,0.00,,,0.00,555,weatherlink.com 1.10,2013-01-26 20:20:00,
2013-01-26 14:35:00,56.2,27.0,30.17,ESE,121,4.0,11.0,32,0.00,,,0.00,441,weatherlink.com 1.10,2013-01-26 20:35:00,
2013-01-26 14:50:00,56.6,26.0,30.17,ESE,110,5.0,10.0,31,0.00,,,0.00,413,weatherlink.com 1.10,2013-01-26 20:50:00,
2013-01-26 15:05:00,56.7,25.0,30.17,SSE,167,6.0,10.0,30,0.00,,,0.00,380,weatherlink.com 1.10,2013-01-26 21:05:00,
2013-01-26 15:20:00,56.9,26.0,30.17,ESE,104,4.0,11.0,30,0.00,,,0.00,348,weatherlink.com 1.10,2013-01-26 21:20:00,
2013-01-26 15:35:00,56.2,26.0,30.17,ESE,115,5.0,11.0,31,0.00,,,0.00,313,weatherlink.com 1.10,2013-01-26 21:35:00,
2013-01-26 15:50:00,56.4,26.0,30.16,ENE,65,7.0,15.0,31,0.00,,,0.00,285,weatherlink.com 1.10,2013-01-26 21:50:00,
2013-01-26 16:05:00,55.9,26.0,30.15,East,91,6.0,9.0,32,0.00,,,0.00,236,weatherlink.com 1.10,2013-01-26 22:05:00,
2013-01-26 16:20:00,55.4,27.0,30.15,ESE,119,7.0,9.0,33,0.00,,,0.00,190,weatherlink.com 1.10,2013-01-26 22:20:00,
2013-01-26 16:35:00,55.2,26.0,30.14,ENE,70,2.0,9.0,33,0.00,,,0.00,33,weatherlink.com 1.10,2013-01-26 22:35:00,
2013-01-26 16:50:00,54.9,27.0,30.14,East,92,3.0,7.0,34,0.00,,,0.00,26,weatherlink.com 1.10,2013-01-26 22:50:00,
2013-01-26 17:05:00,54.5,27.0,30.13,ESE,111,3.0,5.0,35,0.00,,,0.00,16,weatherlink.com 1.10,2013-01-26 23:05:00,
2013-01-26 17:20:00,53.8,27.0,30.13,ESE,108,2.0,7.0,35,0.00,,,0.00,7,weatherlink.com 1.10,2013-01-26 23:20:00,
2013-01-26 17:35:00,53.1,27.0,30.13,ESE,116,3.0,5.0,36,0.00,,,0.00,0,weatherlink.com 1.10,2013-01-26 23:35:00,
2013-01-26 17:50:00,52.3,26.0,30.13,ESE,120,1.0,5.0,36,0.00,,,0.00,0,weatherlink.com 1.10,2013-01-26 23:50:00,
2013-01-26 18:05:00,51.4,26.0,30.13,ESE,122,1.0,5.0,37,0.00,,,0.00,0,weatherlink.com 1.10,2013-01-27 00:05:00,
2013-01-26 18:20:00,50.7,26.0,30.13,ESE,117,0.0,5.0,38,0.00,,,0.00,0,weatherlink.com 1.10,2013-01-27 00:20:00,
2013-01-26 18:35:00,49.9,26.0,30.13,ESE,116,1.0,3.0,39,0.00,,,0.00,0,weatherlink.com 1.10,2013-01-27 00:35:00,
2013-01-26 18:50:00,49.0,25.0,30.13,ESE,116,2.0,3.0,40,0.00,,,0.00,0,weatherlink.com 1.10,2013-01-27 00:50:00,
2013-01-26 19:05:00,48.1,26.0,30.13,ESE,115,2.0,5.0,43,0.00,,,0.00,0,weatherlink.com 1.10,2013-01-27 01:05:00,
2013-01-26 19:21:00,47.8,27.0,30.13,ESE,111,2.0,5.0,44,0.00,,,0.00,0,weatherlink.com 1.10,2013-01-27 01:21:00,
2013-01-26 19:36:00,47.6,27.0,30.13,ESE,119,1.0,4.0,45,0.00,,,0.00,0,weatherlink.com 1.10,2013-01-27 01:36:00,
2013-01-26 19:51:00,47.8,27.0,30.13,ESE,104,3.0,10.0,45,0.00,,,0.00,0,weatherlink.com 1.10,2013-01-27 01:51:00,
2013-01-26 20:06:00,47.7,27.0,30.13,ESE,105,3.0,7.0,45,0.00,,,0.00,0,weatherlink.com 1.10,2013-01-27 02:06:00,
2013-01-26 20:21:00,47.6,27.0,30.13,SE,129,1.0,7.0,45,0.00,,,0.00,0,weatherlink.com 1.10,2013-01-27 02:21:00,
2013-01-26 20:36:00,47.4,27.0,30.12,ESE,117,2.0,4.0,46,0.00,,,0.00,0,weatherlink.com 1.10,2013-01-27 02:36:00,
2013-01-26 20:52:00,47.2,27.0,30.12,ESE,120,2.0,8.0,46,0.00,,,0.00,0,weatherlink.com 1.10,2013-01-27 02:52:00,
2013-01-26 21:06:00,46.9,27.0,30.12,ESE,115,2.0,4.0,47,0.00,,,0.00,0,weatherlink.com 1.10,2013-01-27 03:06:00,
2013-01-26 21:21:00,46.6,27.0,30.11,ESE,118,1.0,7.0,47,0.00,,,0.00,0,weatherlink.com 1.10,2013-01-27 03:21:00,
2013-01-26 21:36:00,46.3,27.0,30.10,ESE,120,1.0,5.0,47,0.00,,,0.00,0,weatherlink.com 1.10,2013-01-27 03:36:00,
2013-01-26 21:51:00,46.1,27.0,30.09,SE,127,2.0,7.0,48,0.00,,,0.00,0,weatherlink.com 1.10,2013-01-27 03:51:00,
2013-01-26 22:06:00,46.3,26.0,30.09,East,95,2.0,10.0,46,0.00,,,0.00,0,weatherlink.com 1.10,2013-01-27 04:06:00,
2013-01-26 22:21:00,46.9,27.0,30.09,ESE,106,1.0,7.0,46,0.00,,,0.00,0,weatherlink.com 1.10,2013-01-27 04:21:00,
2013-01-26 22:36:00,47.4,27.0,30.09,ESE,103,2.0,7.0,45,0.00,,,0.00,0,weatherlink.com 1.10,2013-01-27 04:36:00,
2013-01-26 22:51:00,47.6,26.0,30.09,SSE,148,1.0,9.0,44,0.00,,,0.00,0,weatherlink.com 1.10,2013-01-27 04:51:00,
2013-01-26 23:06:00,47.0,26.0,30.09,ESE,110,2.0,10.0,45,0.00,,,0.00,0,weatherlink.com 1.10,2013-01-27 05:06:00,
2013-01-26 23:21:00,46.7,27.0,30.09,East,83,2.0,9.0,46,0.00,,,0.00,0,weatherlink.com 1.10,2013-01-27 05:21:00,
2013-01-26 23:36:00,46.6,27.0,30.09,ESE,107,5.0,7.0,46,0.00,,,0.00,0,weatherlink.com 1.10,2013-01-27 05:36:00,
2013-01-26 23:51:00,46.7,27.0,30.10,ESE,104,1.0,5.0,46,0.00,,,0.00,0,weatherlink.com 1.10,2013-01-27 05:51:00,